sensor_id;sensor_type;location;lat;lon;timestamp;pressure;altitude;pressure_sealevel;temperature;humidity
56912;BME280;42800;53.928;27.662;2023-04-30T00:00:49;98527.75;;;5.63;100.00
56912;BME280;42800;53.928;27.662;2023-04-30T00:03:16;98532.06;;;5.64;100.00
56912;BME280;42800;53.928;27.662;2023-04-30T00:05:42;98517.13;;;5.58;100.00
56912;BME280;42800;53.928;27.662;2023-04-30T00:08:08;98534.69;;;5.60;100.00
56912;BME280;42800;53.928;27.662;2023-04-30T00:10:34;98530.97;;;5.53;100.00
56912;BME280;42800;53.928;27.662;2023-04-30T00:13:00;98514.75;;;5.56;100.00
56912;BME280;42800;53.928;27.662;2023-04-30T00:15:25;98541.75;;;5.49;100.00
56912;BME280;42800;53.928;27.662;2023-04-30T00:17:51;98541.84;;;5.53;100.00
56912;BME280;42800;53.928;27.662;2023-04-30T00:20:18;98532.47;;;5.50;100.00
56912;BME280;42800;53.928;27.662;2023-04-30T00:22:44;98535.69;;;5.40;100.00
56912;BME280;42800;53.928;27.662;2023-04-30T00:25:10;98534.97;;;5.43;100.00
56912;BME280;42800;53.928;27.662;2023-04-30T00:27:36;98501.78;;;5.22;100.00
56912;BME280;42800;53.928;27.662;2023-04-30T00:30:02;98493.59;;;5.34;100.00
56912;BME280;42800;53.928;27.662;2023-04-30T00:32:28;98497.69;;;5.28;100.00
56912;BME280;42800;53.928;27.662;2023-04-30T00:34:54;98496.38;;;5.09;100.00
56912;BME280;42800;53.928;27.662;2023-04-30T00:37:20;98495.38;;;5.30;100.00
56912;BME280;42800;53.928;27.662;2023-04-30T00:39:46;98480.22;;;5.29;100.00
56912;BME280;42800;53.928;27.662;2023-04-30T00:42:12;98474.72;;;5.13;100.00
56912;BME280;42800;53.928;27.662;2023-04-30T00:44:38;98489.03;;;5.10;100.00
56912;BME280;42800;53.928;27.662;2023-04-30T00:47:04;98486.94;;;5.19;100.00
56912;BME280;42800;53.928;27.662;2023-04-30T00:49:30;98497.91;;;5.23;100.00
56912;BME280;42800;53.928;27.662;2023-04-30T00:51:56;98509.13;;;5.21;100.00
56912;BME280;42800;53.928;27.662;2023-04-30T00:54:23;98515.75;;;5.08;100.00
56912;BME280;42800;53.928;27.662;2023-04-30T00:56:49;98498.16;;;5.17;100.00
56912;BME280;42800;53.928;27.662;2023-04-30T00:59:16;98504.00;;;5.04;100.00
56912;BME280;42800;53.928;27.662;2023-04-30T01:01:42;98492.66;;;5.02;100.00
56912;BME280;42800;53.928;27.662;2023-04-30T01:04:08;98477.22;;;4.78;100.00
56912;BME280;42800;53.928;27.662;2023-04-30T01:06:34;98478.63;;;5.00;100.00
56912;BME280;42800;53.928;27.662;2023-04-30T01:09:00;98447.59;;;4.72;100.00
56912;BME280;42800;53.928;27.662;2023-04-30T01:11:36;98476.66;;;5.12;100.00
56912;BME280;42800;53.928;27.662;2023-04-30T01:14:07;98466.34;;;4.90;100.00
56912;BME280;42800;53.928;27.662;2023-04-30T01:16:40;98486.84;;;5.15;100.00
56912;BME280;42800;53.928;27.662;2023-04-30T01:19:11;98489.06;;;4.98;100.00
56912;BME280;42800;53.928;27.662;2023-04-30T01:21:42;98475.06;;;4.83;100.00
56912;BME280;42800;53.928;27.662;2023-04-30T01:24:27;98450.94;;;4.94;100.00
56912;BME280;42800;53.928;27.662;2023-04-30T01:27:10;98447.47;;;5.09;100.00
56912;BME280;42800;53.928;27.662;2023-04-30T01:29:40;98480.06;;;5.09;100.00
56912;BME280;42800;53.928;27.662;2023-04-30T01:32:06;98464.09;;;5.20;100.00
56912;BME280;42800;53.928;27.662;2023-04-30T01:34:32;98437.16;;;4.87;100.00
56912;BME280;42800;53.928;27.662;2023-04-30T01:37:08;98419.16;;;4.82;100.00
56912;BME280;42800;53.928;27.662;2023-04-30T01:39:49;98433.41;;;4.91;100.00
56912;BME280;42800;53.928;27.662;2023-04-30T01:42:21;98431.03;;;4.90;100.00
56912;BME280;42800;53.928;27.662;2023-04-30T01:45:00;98417.00;;;4.88;100.00
56912;BME280;42800;53.928;27.662;2023-04-30T01:47:37;98399.09;;;4.59;100.00
56912;BME280;42800;53.928;27.662;2023-04-30T01:50:09;98381.94;;;4.83;100.00
56912;BME280;42800;53.928;27.662;2023-04-30T01:52:39;98386.47;;;4.79;100.00
56912;BME280;42800;53.928;27.662;2023-04-30T01:55:09;98379.06;;;4.63;100.00
56912;BME280;42800;53.928;27.662;2023-04-30T01:57:38;98364.19;;;4.45;100.00
56912;BME280;42800;53.928;27.662;2023-04-30T02:00:07;98385.72;;;4.66;100.00
56912;BME280;42800;53.928;27.662;2023-04-30T02:02:35;98356.53;;;4.63;100.00
56912;BME280;42800;53.928;27.662;2023-04-30T02:05:01;98374.22;;;4.57;100.00
56912;BME280;42800;53.928;27.662;2023-04-30T02:07:36;98371.84;;;4.55;100.00
56912;BME280;42800;53.928;27.662;2023-04-30T02:10:03;98373.38;;;4.68;100.00
56912;BME280;42800;53.928;27.662;2023-04-30T02:12:29;98374.63;;;4.71;100.00
56912;BME280;42800;53.928;27.662;2023-04-30T02:14:55;98388.22;;;4.59;100.00
56912;BME280;42800;53.928;27.662;2023-04-30T02:17:22;98382.69;;;4.55;100.00
56912;BME280;42800;53.928;27.662;2023-04-30T02:19:48;98376.28;;;4.47;100.00
56912;BME280;42800;53.928;27.662;2023-04-30T02:22:14;98377.78;;;4.33;100.00
56912;BME280;42800;53.928;27.662;2023-04-30T02:24:40;98384.66;;;4.42;100.00
56912;BME280;42800;53.928;27.662;2023-04-30T02:27:06;98371.66;;;4.48;100.00
56912;BME280;42800;53.928;27.662;2023-04-30T02:29:32;98383.69;;;4.63;100.00
56912;BME280;42800;53.928;27.662;2023-04-30T02:31:58;98398.00;;;4.47;100.00
56912;BME280;42800;53.928;27.662;2023-04-30T02:34:25;98361.00;;;4.43;100.00
56912;BME280;42800;53.928;27.662;2023-04-30T02:36:51;98362.06;;;4.66;100.00
56912;BME280;42800;53.928;27.662;2023-04-30T02:39:17;98364.88;;;4.30;100.00
56912;BME280;42800;53.928;27.662;2023-04-30T02:41:43;98366.50;;;4.31;100.00
56912;BME280;42800;53.928;27.662;2023-04-30T02:44:09;98382.97;;;4.50;100.00
56912;BME280;42800;53.928;27.662;2023-04-30T02:46:35;98393.88;;;4.66;100.00
56912;BME280;42800;53.928;27.662;2023-04-30T02:49:01;98404.63;;;4.62;100.00
56912;BME280;42800;53.928;27.662;2023-04-30T02:51:28;98384.97;;;4.53;100.00
56912;BME280;42800;53.928;27.662;2023-04-30T02:53:54;98401.16;;;4.49;100.00
56912;BME280;42800;53.928;27.662;2023-04-30T02:56:20;98408.00;;;4.71;100.00
56912;BME280;42800;53.928;27.662;2023-04-30T02:58:46;98419.34;;;4.61;100.00
56912;BME280;42800;53.928;27.662;2023-04-30T03:01:13;98422.22;;;4.81;100.00
56912;BME280;42800;53.928;27.662;2023-04-30T03:03:39;98428.78;;;4.80;100.00
56912;BME280;42800;53.928;27.662;2023-04-30T03:06:05;98420.53;;;4.76;100.00
56912;BME280;42800;53.928;27.662;2023-04-30T03:08:32;98426.78;;;4.77;100.00
56912;BME280;42800;53.928;27.662;2023-04-30T03:10:57;98438.91;;;4.67;100.00
56912;BME280;42800;53.928;27.662;2023-04-30T03:13:23;98417.97;;;4.95;100.00
56912;BME280;42800;53.928;27.662;2023-04-30T03:15:56;98446.91;;;5.32;100.00
56912;BME280;42800;53.928;27.662;2023-04-30T03:18:21;98485.16;;;5.67;100.00
56912;BME280;42800;53.928;27.662;2023-04-30T03:20:47;98555.63;;;6.64;100.00
56912;BME280;42800;53.928;27.662;2023-04-30T03:23:13;98608.25;;;7.19;100.00
56912;BME280;42800;53.928;27.662;2023-04-30T03:25:40;98649.13;;;7.19;100.00
56912;BME280;42800;53.928;27.662;2023-04-30T03:28:06;98694.84;;;8.15;100.00
56912;BME280;42800;53.928;27.662;2023-04-30T03:30:31;98717.91;;;8.57;100.00
56912;BME280;42800;53.928;27.662;2023-04-30T03:32:57;98738.16;;;8.75;100.00
56912;BME280;42800;53.928;27.662;2023-04-30T03:35:23;98762.31;;;8.34;100.00
56912;BME280;42800;53.928;27.662;2023-04-30T03:37:49;98775.75;;;8.23;100.00
56912;BME280;42800;53.928;27.662;2023-04-30T03:40:15;98773.81;;;9.05;100.00
56912;BME280;42800;53.928;27.662;2023-04-30T03:42:42;98797.63;;;9.74;100.00
56912;BME280;42800;53.928;27.662;2023-04-30T03:45:08;98795.75;;;9.55;98.48
56912;BME280;42800;53.928;27.662;2023-04-30T03:47:35;98799.72;;;10.10;94.55
56912;BME280;42800;53.928;27.662;2023-04-30T03:50:01;98800.59;;;11.19;93.09
56912;BME280;42800;53.928;27.662;2023-04-30T03:52:28;98806.59;;;10.91;87.08
56912;BME280;42800;53.928;27.662;2023-04-30T03:54:54;98810.69;;;11.52;88.92
56912;BME280;42800;53.928;27.662;2023-04-30T03:57:20;98827.13;;;10.71;83.93
56912;BME280;42800;53.928;27.662;2023-04-30T03:59:47;98817.03;;;11.16;83.17
56912;BME280;42800;53.928;27.662;2023-04-30T04:02:13;98814.00;;;12.28;84.32
56912;BME280;42800;53.928;27.662;2023-04-30T04:04:39;98830.72;;;12.81;77.75
56912;BME280;42800;53.928;27.662;2023-04-30T04:07:05;98826.41;;;12.87;79.24
56912;BME280;42800;53.928;27.662;2023-04-30T04:09:33;98827.72;;;13.26;76.83
56912;BME280;42800;53.928;27.662;2023-04-30T04:11:59;98829.94;;;12.81;76.37
56912;BME280;42800;53.928;27.662;2023-04-30T04:14:26;98827.97;;;12.78;72.81
56912;BME280;42800;53.928;27.662;2023-04-30T04:16:52;98831.69;;;13.53;73.39
56912;BME280;42800;53.928;27.662;2023-04-30T04:19:18;98824.41;;;11.97;73.65
56912;BME280;42800;53.928;27.662;2023-04-30T04:21:44;98830.25;;;12.65;70.84
56912;BME280;42800;53.928;27.662;2023-04-30T04:24:10;98836.31;;;13.06;68.86
56912;BME280;42800;53.928;27.662;2023-04-30T04:26:36;98833.91;;;12.98;68.50
56912;BME280;42800;53.928;27.662;2023-04-30T04:29:03;98829.69;;;13.29;69.22
56912;BME280;42800;53.928;27.662;2023-04-30T04:31:29;98829.63;;;14.25;67.50
56912;BME280;42800;53.928;27.662;2023-04-30T04:33:58;98826.84;;;14.32;66.94
56912;BME280;42800;53.928;27.662;2023-04-30T04:36:24;98832.88;;;13.67;66.68
56912;BME280;42800;53.928;27.662;2023-04-30T04:38:51;98821.81;;;13.92;67.05
56912;BME280;42800;53.928;27.662;2023-04-30T04:41:17;98822.59;;;13.96;65.39
56912;BME280;42800;53.928;27.662;2023-04-30T04:43:43;98834.81;;;13.27;65.15
56912;BME280;42800;53.928;27.662;2023-04-30T04:46:10;98831.13;;;12.87;66.71
56912;BME280;42800;53.928;27.662;2023-04-30T04:48:36;98833.66;;;13.74;64.75
56912;BME280;42800;53.928;27.662;2023-04-30T04:51:03;98829.59;;;14.43;63.09
56912;BME280;42800;53.928;27.662;2023-04-30T04:53:29;98823.00;;;14.01;63.57
56912;BME280;42800;53.928;27.662;2023-04-30T04:55:55;98825.28;;;15.82;61.96
56912;BME280;42800;53.928;27.662;2023-04-30T04:58:21;98819.97;;;14.94;61.88
56912;BME280;42800;53.928;27.662;2023-04-30T05:00:47;98821.03;;;15.15;61.01
56912;BME280;42800;53.928;27.662;2023-04-30T05:03:13;98827.06;;;14.92;59.37
56912;BME280;42800;53.928;27.662;2023-04-30T05:05:39;98818.47;;;14.75;61.00
56912;BME280;42800;53.928;27.662;2023-04-30T05:08:06;98816.47;;;15.49;59.87
56912;BME280;42800;53.928;27.662;2023-04-30T05:10:31;98818.59;;;16.21;58.99
56912;BME280;42800;53.928;27.662;2023-04-30T05:12:59;98821.59;;;15.96;57.35
56912;BME280;42800;53.928;27.662;2023-04-30T05:15:25;98814.56;;;16.29;58.10
56912;BME280;42800;53.928;27.662;2023-04-30T05:17:51;98811.56;;;17.12;57.07
56912;BME280;42800;53.928;27.662;2023-04-30T05:20:17;98812.94;;;16.66;56.82
56912;BME280;42800;53.928;27.662;2023-04-30T05:22:43;98810.50;;;18.27;55.18
56912;BME280;42800;53.928;27.662;2023-04-30T05:25:09;98812.59;;;18.43;55.11
56912;BME280;42800;53.928;27.662;2023-04-30T05:27:35;98809.22;;;18.31;54.46
56912;BME280;42800;53.928;27.662;2023-04-30T05:30:01;98802.06;;;17.91;54.25
56912;BME280;42800;53.928;27.662;2023-04-30T05:32:27;98816.53;;;17.51;54.39
56912;BME280;42800;53.928;27.662;2023-04-30T05:34:53;98801.28;;;17.90;54.97
56912;BME280;42800;53.928;27.662;2023-04-30T05:37:20;98794.78;;;17.26;54.72
56912;BME280;42800;53.928;27.662;2023-04-30T05:39:47;98798.56;;;18.90;53.62
56912;BME280;42800;53.928;27.662;2023-04-30T05:42:13;98796.66;;;18.47;54.13
56912;BME280;42800;53.928;27.662;2023-04-30T05:44:39;98796.56;;;18.50;53.93
56912;BME280;42800;53.928;27.662;2023-04-30T05:47:05;98809.81;;;17.99;53.65
56912;BME280;42800;53.928;27.662;2023-04-30T05:49:31;98798.75;;;18.39;52.48
56912;BME280;42800;53.928;27.662;2023-04-30T05:51:57;98790.97;;;19.10;52.85
56912;BME280;42800;53.928;27.662;2023-04-30T05:54:24;98800.69;;;20.16;51.83
56912;BME280;42800;53.928;27.662;2023-04-30T05:56:50;98792.56;;;19.27;52.09
56912;BME280;42800;53.928;27.662;2023-04-30T05:59:16;98794.16;;;20.23;51.15
56912;BME280;42800;53.928;27.662;2023-04-30T06:01:43;98795.59;;;17.97;54.21
56912;BME280;42800;53.928;27.662;2023-04-30T06:04:09;98790.78;;;18.21;53.60
56912;BME280;42800;53.928;27.662;2023-04-30T06:06:36;98788.97;;;19.11;53.03
56912;BME280;42800;53.928;27.662;2023-04-30T06:09:02;98793.09;;;19.71;51.23
56912;BME280;42800;53.928;27.662;2023-04-30T06:11:28;98787.59;;;18.03;51.27
56912;BME280;42800;53.928;27.662;2023-04-30T06:13:54;98783.44;;;19.27;51.64
56912;BME280;42800;53.928;27.662;2023-04-30T06:16:22;98775.84;;;18.35;51.77
56912;BME280;42800;53.928;27.662;2023-04-30T06:18:48;98786.50;;;17.97;52.98
56912;BME280;42800;53.928;27.662;2023-04-30T06:21:14;98783.34;;;19.14;51.55
56912;BME280;42800;53.928;27.662;2023-04-30T06:23:40;98780.25;;;18.52;51.23
56912;BME280;42800;53.928;27.662;2023-04-30T06:26:06;98773.47;;;17.94;52.41
56912;BME280;42800;53.928;27.662;2023-04-30T06:28:32;98776.97;;;19.66;51.30
56912;BME280;42800;53.928;27.662;2023-04-30T06:30:58;98770.75;;;19.10;50.87
56912;BME280;42800;53.928;27.662;2023-04-30T06:33:24;98774.19;;;17.74;53.02
56912;BME280;42800;53.928;27.662;2023-04-30T06:35:50;98765.84;;;18.97;52.17
56912;BME280;42800;53.928;27.662;2023-04-30T06:38:19;98766.09;;;18.67;51.27
56912;BME280;42800;53.928;27.662;2023-04-30T06:40:45;98764.50;;;18.66;50.86
56912;BME280;42800;53.928;27.662;2023-04-30T06:43:12;98765.28;;;19.71;51.26
56912;BME280;42800;53.928;27.662;2023-04-30T06:45:38;98754.22;;;18.86;51.75
56912;BME280;42800;53.928;27.662;2023-04-30T06:48:04;98758.59;;;20.14;49.64
56912;BME280;42800;53.928;27.662;2023-04-30T06:50:31;98764.31;;;19.13;50.30
56912;BME280;42800;53.928;27.662;2023-04-30T06:52:57;98754.13;;;20.33;49.50
56912;BME280;42800;53.928;27.662;2023-04-30T06:55:23;98752.00;;;19.46;50.43
56912;BME280;42800;53.928;27.662;2023-04-30T06:57:49;98751.53;;;20.68;50.53
56912;BME280;42800;53.928;27.662;2023-04-30T07:00:15;98753.41;;;20.58;50.69
56912;BME280;42800;53.928;27.662;2023-04-30T07:02:41;98750.78;;;21.57;49.20
56912;BME280;42800;53.928;27.662;2023-04-30T07:05:08;98755.44;;;20.71;50.29
56912;BME280;42800;53.928;27.662;2023-04-30T07:07:36;98745.09;;;21.48;49.23
56912;BME280;42800;53.928;27.662;2023-04-30T07:10:02;98741.19;;;21.93;49.02
56912;BME280;42800;53.928;27.662;2023-04-30T07:12:28;98733.16;;;21.22;49.16
56912;BME280;42800;53.928;27.662;2023-04-30T07:14:54;98737.25;;;20.24;49.83
56912;BME280;42800;53.928;27.662;2023-04-30T07:17:20;98735.69;;;20.52;50.77
56912;BME280;42800;53.928;27.662;2023-04-30T07:19:46;98733.28;;;20.38;49.98
56912;BME280;42800;53.928;27.662;2023-04-30T07:22:12;98743.97;;;21.93;49.83
56912;BME280;42800;53.928;27.662;2023-04-30T07:24:38;98735.47;;;21.96;49.23
56912;BME280;42800;53.928;27.662;2023-04-30T07:27:04;98736.16;;;22.22;48.32
56912;BME280;42800;53.928;27.662;2023-04-30T07:29:31;98738.59;;;22.33;47.83
56912;BME280;42800;53.928;27.662;2023-04-30T07:31:57;98731.94;;;21.48;47.57
56912;BME280;42800;53.928;27.662;2023-04-30T07:34:24;98734.69;;;22.62;47.51
56912;BME280;42800;53.928;27.662;2023-04-30T07:36:50;98741.53;;;21.47;47.31
56912;BME280;42800;53.928;27.662;2023-04-30T07:39:15;98727.13;;;22.18;47.42
56912;BME280;42800;53.928;27.662;2023-04-30T07:41:43;98725.94;;;21.72;47.79
56912;BME280;42800;53.928;27.662;2023-04-30T07:44:09;98729.31;;;22.01;47.35
56912;BME280;42800;53.928;27.662;2023-04-30T07:46:35;98728.44;;;22.26;47.62
56912;BME280;42800;53.928;27.662;2023-04-30T07:49:01;98732.22;;;21.98;47.76
56912;BME280;42800;53.928;27.662;2023-04-30T07:51:28;98711.44;;;23.45;46.66
56912;BME280;42800;53.928;27.662;2023-04-30T07:53:54;98723.44;;;21.52;47.55
56912;BME280;42800;53.928;27.662;2023-04-30T07:56:20;98721.22;;;21.47;47.13
56912;BME280;42800;53.928;27.662;2023-04-30T07:58:46;98710.38;;;21.49;46.84
56912;BME280;42800;53.928;27.662;2023-04-30T08:01:12;98704.91;;;21.58;48.18
56912;BME280;42800;53.928;27.662;2023-04-30T08:03:38;98698.19;;;22.25;47.64
56912;BME280;42800;53.928;27.662;2023-04-30T08:06:04;98699.47;;;23.45;45.79
56912;BME280;42800;53.928;27.662;2023-04-30T08:08:30;98702.47;;;23.60;46.15
56912;BME280;42800;53.928;27.662;2023-04-30T08:10:56;98699.34;;;24.31;45.62
56912;BME280;42800;53.928;27.662;2023-04-30T08:13:22;98700.72;;;24.54;45.47
56912;BME280;42800;53.928;27.662;2023-04-30T08:15:49;98700.53;;;24.67;45.28
56912;BME280;42800;53.928;27.662;2023-04-30T08:18:15;98694.00;;;25.03;44.59
56912;BME280;42800;53.928;27.662;2023-04-30T08:20:41;98694.38;;;22.94;46.04
56912;BME280;42800;53.928;27.662;2023-04-30T08:23:06;98700.16;;;24.13;44.62
56912;BME280;42800;53.928;27.662;2023-04-30T08:25:32;98693.38;;;24.66;44.20
56912;BME280;42800;53.928;27.662;2023-04-30T08:27:58;98694.56;;;23.95;44.66
56912;BME280;42800;53.928;27.662;2023-04-30T08:30:24;98686.97;;;24.65;44.38
56912;BME280;42800;53.928;27.662;2023-04-30T08:32:51;98688.41;;;24.61;44.71
56912;BME280;42800;53.928;27.662;2023-04-30T08:35:17;98683.81;;;23.57;44.29
56912;BME280;42800;53.928;27.662;2023-04-30T08:37:43;98685.63;;;25.27;43.21
56912;BME280;42800;53.928;27.662;2023-04-30T08:40:10;98671.13;;;23.15;43.35
56912;BME280;42800;53.928;27.662;2023-04-30T08:42:40;98673.19;;;21.99;43.85
56912;BME280;42800;53.928;27.662;2023-04-30T08:45:08;98672.66;;;22.14;44.79
56912;BME280;42800;53.928;27.662;2023-04-30T08:47:36;98686.94;;;23.77;44.23
56912;BME280;42800;53.928;27.662;2023-04-30T08:50:03;98672.47;;;23.79;43.65
56912;BME280;42800;53.928;27.662;2023-04-30T08:52:30;98670.81;;;22.73;44.86
56912;BME280;42800;53.928;27.662;2023-04-30T08:55:00;98683.34;;;23.95;44.09
56912;BME280;42800;53.928;27.662;2023-04-30T08:57:26;98672.03;;;22.72;44.13
56912;BME280;42800;53.928;27.662;2023-04-30T08:59:52;98666.81;;;22.21;44.78
56912;BME280;42800;53.928;27.662;2023-04-30T09:02:18;98670.25;;;21.46;44.44
56912;BME280;42800;53.928;27.662;2023-04-30T09:04:45;98663.84;;;22.15;44.56
56912;BME280;42800;53.928;27.662;2023-04-30T09:07:12;98653.97;;;21.79;44.45
56912;BME280;42800;53.928;27.662;2023-04-30T09:09:39;98653.28;;;22.41;44.66
56912;BME280;42800;53.928;27.662;2023-04-30T09:12:12;98656.94;;;23.78;43.69
56912;BME280;42800;53.928;27.662;2023-04-30T09:14:38;98659.97;;;22.44;44.50
56912;BME280;42800;53.928;27.662;2023-04-30T09:17:05;98660.84;;;22.94;45.04
56912;BME280;42800;53.928;27.662;2023-04-30T09:19:31;98650.53;;;22.50;44.87
56912;BME280;42800;53.928;27.662;2023-04-30T09:21:57;98662.28;;;21.57;44.81
56912;BME280;42800;53.928;27.662;2023-04-30T09:24:23;98656.91;;;20.39;46.41
56912;BME280;42800;53.928;27.662;2023-04-30T09:26:50;98662.06;;;22.08;45.26
56912;BME280;42800;53.928;27.662;2023-04-30T09:29:16;98649.88;;;23.18;44.38
56912;BME280;42800;53.928;27.662;2023-04-30T09:31:43;98653.16;;;22.76;45.13
56912;BME280;42800;53.928;27.662;2023-04-30T09:34:10;98642.72;;;22.14;44.93
56912;BME280;42800;53.928;27.662;2023-04-30T09:36:36;98641.19;;;23.34;44.88
56912;BME280;42800;53.928;27.662;2023-04-30T09:39:06;98636.78;;;22.96;45.41
56912;BME280;42800;53.928;27.662;2023-04-30T09:41:32;98645.53;;;23.26;45.02
56912;BME280;42800;53.928;27.662;2023-04-30T09:43:58;98637.69;;;22.62;45.26
56912;BME280;42800;53.928;27.662;2023-04-30T09:46:29;98636.59;;;22.19;45.23
56912;BME280;42800;53.928;27.662;2023-04-30T09:48:58;98637.16;;;21.70;45.53
56912;BME280;42800;53.928;27.662;2023-04-30T09:51:24;98631.97;;;23.15;45.15
56912;BME280;42800;53.928;27.662;2023-04-30T09:53:51;98629.81;;;23.29;43.51
56912;BME280;42800;53.928;27.662;2023-04-30T09:56:20;98616.88;;;21.79;45.30
56912;BME280;42800;53.928;27.662;2023-04-30T09:58:49;98626.13;;;22.82;44.60
56912;BME280;42800;53.928;27.662;2023-04-30T10:01:16;98617.09;;;23.55;45.53
56912;BME280;42800;53.928;27.662;2023-04-30T10:03:43;98611.84;;;23.57;43.36
56912;BME280;42800;53.928;27.662;2023-04-30T10:06:11;98621.00;;;23.30;43.60
56912;BME280;42800;53.928;27.662;2023-04-30T10:08:39;98617.06;;;24.19;42.66
56912;BME280;42800;53.928;27.662;2023-04-30T10:11:07;98617.19;;;24.25;42.77
56912;BME280;42800;53.928;27.662;2023-04-30T10:13:39;98601.13;;;24.44;42.68
56912;BME280;42800;53.928;27.662;2023-04-30T10:16:22;98607.66;;;24.32;43.49
56912;BME280;42800;53.928;27.662;2023-04-30T10:18:49;98603.66;;;24.24;42.70
56912;BME280;42800;53.928;27.662;2023-04-30T10:21:17;98604.41;;;22.15;43.62
56912;BME280;42800;53.928;27.662;2023-04-30T10:23:45;98600.66;;;22.71;43.78
56912;BME280;42800;53.928;27.662;2023-04-30T10:26:13;98595.72;;;22.84;43.57
56912;BME280;42800;53.928;27.662;2023-04-30T10:28:41;98606.41;;;23.63;43.46
56912;BME280;42800;53.928;27.662;2023-04-30T10:31:08;98600.31;;;23.55;43.65
56912;BME280;42800;53.928;27.662;2023-04-30T10:33:43;98602.91;;;22.94;43.10
56912;BME280;42800;53.928;27.662;2023-04-30T10:36:20;98592.22;;;22.93;44.48
56912;BME280;42800;53.928;27.662;2023-04-30T10:38:47;98596.53;;;22.94;43.53
56912;BME280;42800;53.928;27.662;2023-04-30T10:41:13;98599.75;;;22.92;44.76
56912;BME280;42800;53.928;27.662;2023-04-30T10:43:39;98587.88;;;23.29;43.75
56912;BME280;42800;53.928;27.662;2023-04-30T10:46:07;98583.41;;;22.63;43.99
56912;BME280;42800;53.928;27.662;2023-04-30T10:48:33;98585.22;;;22.17;43.79
56912;BME280;42800;53.928;27.662;2023-04-30T10:51:00;98590.47;;;20.66;44.42
56912;BME280;42800;53.928;27.662;2023-04-30T10:53:29;98596.47;;;21.12;44.80
56912;BME280;42800;53.928;27.662;2023-04-30T10:55:58;98594.38;;;21.51;44.32
56912;BME280;42800;53.928;27.662;2023-04-30T10:58:26;98590.22;;;21.78;44.77
56912;BME280;42800;53.928;27.662;2023-04-30T11:01:02;98587.38;;;20.99;43.88
56912;BME280;42800;53.928;27.662;2023-04-30T11:03:31;98581.09;;;20.73;44.93
56912;BME280;42800;53.928;27.662;2023-04-30T11:05:58;98583.72;;;20.26;46.10
56912;BME280;42800;53.928;27.662;2023-04-30T11:08:32;98573.03;;;19.98;45.66
56912;BME280;42800;53.928;27.662;2023-04-30T11:10:59;98574.47;;;19.90;46.84
56912;BME280;42800;53.928;27.662;2023-04-30T11:13:26;98575.38;;;20.00;46.63
56912;BME280;42800;53.928;27.662;2023-04-30T11:15:52;98576.16;;;20.01;47.60
56912;BME280;42800;53.928;27.662;2023-04-30T11:18:19;98577.97;;;20.33;46.55
56912;BME280;42800;53.928;27.662;2023-04-30T11:20:49;98569.25;;;19.34;47.11
56912;BME280;42800;53.928;27.662;2023-04-30T11:23:16;98575.94;;;19.66;46.91
56912;BME280;42800;53.928;27.662;2023-04-30T11:25:47;98567.50;;;20.50;46.18
56912;BME280;42800;53.928;27.662;2023-04-30T11:28:15;98568.94;;;20.80;46.70
56912;BME280;42800;53.928;27.662;2023-04-30T11:30:49;98554.41;;;20.85;45.99
56912;BME280;42800;53.928;27.662;2023-04-30T11:33:15;98552.97;;;19.91;48.56
56912;BME280;42800;53.928;27.662;2023-04-30T11:35:42;98563.09;;;19.85;50.44
56912;BME280;42800;53.928;27.662;2023-04-30T11:38:11;98560.56;;;20.41;49.51
56912;BME280;42800;53.928;27.662;2023-04-30T11:40:37;98556.78;;;20.35;48.78
56912;BME280;42800;53.928;27.662;2023-04-30T11:43:03;98549.13;;;20.27;49.50
56912;BME280;42800;53.928;27.662;2023-04-30T11:45:29;98544.56;;;20.20;49.89
56912;BME280;42800;53.928;27.662;2023-04-30T11:47:56;98545.31;;;19.53;51.36
56912;BME280;42800;53.928;27.662;2023-04-30T11:50:24;98533.94;;;19.77;51.72
56912;BME280;42800;53.928;27.662;2023-04-30T11:52:54;98534.31;;;20.17;50.51
56912;BME280;42800;53.928;27.662;2023-04-30T11:55:22;98534.84;;;20.12;49.84
56912;BME280;42800;53.928;27.662;2023-04-30T11:57:50;98531.06;;;19.93;51.30
56912;BME280;42800;53.928;27.662;2023-04-30T12:00:18;98536.44;;;20.00;50.47
56912;BME280;42800;53.928;27.662;2023-04-30T12:02:46;98534.31;;;19.62;51.49
56912;BME280;42800;53.928;27.662;2023-04-30T12:05:13;98534.66;;;20.06;51.67
56912;BME280;42800;53.928;27.662;2023-04-30T12:07:44;98540.50;;;19.95;51.67
56912;BME280;42800;53.928;27.662;2023-04-30T12:10:11;98554.84;;;19.39;52.88
56912;BME280;42800;53.928;27.662;2023-04-30T12:12:38;98559.53;;;18.97;59.41
56912;BME280;42800;53.928;27.662;2023-04-30T12:15:11;98555.66;;;17.69;70.70
56912;BME280;42800;53.928;27.662;2023-04-30T12:17:37;98553.25;;;17.51;76.13
56912;BME280;42800;53.928;27.662;2023-04-30T12:20:03;98554.25;;;16.51;81.36
56912;BME280;42800;53.928;27.662;2023-04-30T12:22:29;98539.69;;;16.46;83.85
56912;BME280;42800;53.928;27.662;2023-04-30T12:24:57;98540.59;;;16.13;89.20
56912;BME280;42800;53.928;27.662;2023-04-30T12:27:24;98543.41;;;15.79;92.68
56912;BME280;42800;53.928;27.662;2023-04-30T12:29:50;98518.91;;;15.50;99.05
56912;BME280;42800;53.928;27.662;2023-04-30T12:32:20;98521.53;;;15.26;100.00
56912;BME280;42800;53.928;27.662;2023-04-30T12:34:46;98515.06;;;15.40;100.00
56912;BME280;42800;53.928;27.662;2023-04-30T12:37:14;98518.22;;;15.39;100.00
56912;BME280;42800;53.928;27.662;2023-04-30T12:39:40;98513.56;;;14.98;100.00
56912;BME280;42800;53.928;27.662;2023-04-30T12:42:06;98504.75;;;14.69;100.00
56912;BME280;42800;53.928;27.662;2023-04-30T12:44:41;98509.28;;;14.93;100.00
56912;BME280;42800;53.928;27.662;2023-04-30T12:47:08;98502.91;;;14.06;100.00
56912;BME280;42800;53.928;27.662;2023-04-30T12:49:34;98512.72;;;14.07;100.00